Time;durP1;ratioP1;P1;durP2;ratioP2;P2;SDS_P1;SDS_P2;PMS_P1;PMS_P2;Temp;Humidity;BMP_temperature;BMP_pressure;BME280_temperature;BME280_humidity;BME280_pressure;Samples;Min_cycle;Max_cycle;Signal;HPM_P1;HPM_P2
2022/01/01 00:02:23;;;;;;;41.72;12.40;;;11.20;99.90;;;;;;4944574;28;20095;-66
2022/01/01 00:04:49;;;;;;;51.92;13.13;;;11.20;99.90;;;;;;4945761;29;20039;-66
2022/01/01 00:07:16;;;;;;;43.30;15.27;;;11.20;99.90;;;;;;4952598;28;20091;-66
2022/01/01 00:09:43;;;;;;;47.70;14.30;;;11.20;99.90;;;;;;4955298;28;20069;-66
2022/01/01 00:12:10;;;;;;;52.97;16.95;;;11.20;99.90;;;;;;4929125;29;20527;-66
2022/01/01 00:14:37;;;;;;;37.80;13.40;;;11.20;99.90;;;;;;4947691;29;20050;-66
2022/01/01 00:17:03;;;;;;;48.80;15.35;;;11.20;99.90;;;;;;4929976;29;20058;-67
2022/01/01 00:19:31;;;;;;;51.00;16.27;;;11.20;99.90;;;;;;4949209;29;20090;-66
2022/01/01 00:21:58;;;;;;;46.97;16.75;;;11.20;99.90;;;;;;4948121;29;20106;-66
2022/01/01 00:24:24;;;;;;;39.45;14.25;;;11.20;99.90;;;;;;4946000;29;20055;-66
2022/01/01 00:26:49;;;;;;;44.25;15.27;;;11.20;99.90;;;;;;4948020;29;20414;-66
2022/01/01 00:29:15;;;;;;;51.42;16.48;;;11.20;99.90;;;;;;4933201;29;20218;-66
2022/01/01 00:31:41;;;;;;;43.50;15.77;;;11.20;99.90;;;;;;4948707;29;20053;-66
2022/01/01 00:34:07;;;;;;;48.67;16.48;;;11.20;99.90;;;;;;4946612;28;20078;-66
2022/01/01 00:36:33;;;;;;;52.05;18.15;;;11.10;99.90;;;;;;4947607;28;20498;-67
2022/01/01 00:38:59;;;;;;;59.05;20.05;;;11.10;99.90;;;;;;4947845;28;20078;-66
2022/01/01 00:41:25;;;;;;;45.95;15.45;;;11.00;99.90;;;;;;4930853;29;20126;-66
2022/01/01 00:43:50;;;;;;;39.70;15.00;;;11.00;99.90;;;;;;4946645;29;20062;-66
2022/01/01 00:46:16;;;;;;;63.45;21.35;;;11.00;99.90;;;;;;4930422;29;20044;-66
2022/01/01 00:48:42;;;;;;;62.00;18.92;;;10.90;99.90;;;;;;4930067;29;20538;-66
2022/01/01 00:51:08;;;;;;;63.72;20.42;;;11.00;99.90;;;;;;4928480;29;20095;-66
2022/01/01 00:53:33;;;;;;;53.22;19.45;;;10.80;99.90;;;;;;4947474;29;20130;-66
2022/01/01 00:55:59;;;;;;;54.63;16.77;;;10.80;99.90;;;;;;4932649;29;20075;-66
2022/01/01 00:58:25;;;;;;;46.20;15.52;;;10.80;99.90;;;;;;4933292;29;20053;-66
2022/01/01 01:00:51;;;;;;;44.28;15.70;;;10.70;99.90;;;;;;4950965;28;20134;-67
2022/01/01 01:03:18;;;;;;;49.35;16.70;;;10.70;99.90;;;;;;4953208;28;20506;-66
2022/01/01 01:05:45;;;;;;;49.60;14.73;;;10.80;99.90;;;;;;4935296;29;20039;-66
2022/01/01 01:08:13;;;;;;;50.25;15.80;;;10.80;99.90;;;;;;4946945;28;20046;-66
2022/01/01 01:10:40;;;;;;;33.53;11.80;;;10.80;99.90;;;;;;4933966;29;20051;-66
2022/01/01 01:13:08;;;;;;;46.53;15.23;;;10.80;99.90;;;;;;4949150;28;20450;-66
2022/01/01 01:15:34;;;;;;;46.30;14.93;;;10.90;99.90;;;;;;4937361;29;20043;-66
2022/01/01 01:18:03;;;;;;;59.28;17.02;;;10.80;99.90;;;;;;4957415;28;20043;-66
2022/01/01 01:20:29;;;;;;;48.50;13.02;;;10.80;99.90;;;;;;4956519;28;20122;-66
2022/01/01 01:22:55;;;;;;;40.17;13.48;;;10.90;99.90;;;;;;4963157;28;20503;-66
2022/01/01 01:25:22;;;;;;;39.35;12.43;;;10.90;99.90;;;;;;4956745;28;20114;-66
2022/01/01 01:27:50;;;;;;;48.22;15.77;;;10.90;99.90;;;;;;4961442;28;20124;-66
2022/01/01 01:30:17;;;;;;;37.58;11.73;;;10.90;99.90;;;;;;4942966;29;20072;-66
2022/01/01 01:32:46;;;;;;;54.15;17.05;;;10.80;99.90;;;;;;4947700;29;20050;-66
2022/01/01 01:35:13;;;;;;;46.35;14.85;;;10.80;99.90;;;;;;4944763;28;20058;-66
2022/01/01 01:37:39;;;;;;;64.03;17.45;;;10.70;99.90;;;;;;4949499;29;20427;-66
2022/01/01 01:40:07;;;;;;;53.72;17.13;;;10.70;99.90;;;;;;4931155;29;20475;-66
2022/01/01 01:42:34;;;;;;;53.25;17.38;;;10.70;99.90;;;;;;4930728;29;20047;-66
2022/01/01 01:45:03;;;;;;;51.20;16.42;;;10.60;99.90;;;;;;4949144;29;20051;-66
2022/01/01 01:47:35;;;;;;;57.88;17.63;;;10.60;99.90;;;;;;4947768;29;20039;-66
2022/01/01 01:50:05;;;;;;;52.50;16.85;;;10.50;99.90;;;;;;4940566;29;20059;-66
2022/01/01 01:52:33;;;;;;;52.35;17.00;;;10.50;99.90;;;;;;4946463;29;20560;-66
2022/01/01 01:55:01;;;;;;;67.38;19.10;;;10.50;99.90;;;;;;4947792;28;20122;-67
2022/01/01 01:57:29;;;;;;;77.22;20.38;;;10.40;99.90;;;;;;4960085;28;20047;-66
2022/01/01 01:59:55;;;;;;;65.18;19.70;;;10.40;99.90;;;;;;4944688;29;20502;-66
2022/01/01 02:02:20;;;;;;;58.90;18.65;;;10.40;99.90;;;;;;4935246;29;20046;-66
2022/01/01 02:04:46;;;;;;;62.28;19.10;;;10.30;99.90;;;;;;4913898;29;20047;-66
2022/01/01 02:07:13;;;;;;;58.75;18.27;;;10.30;99.90;;;;;;4938244;29;20039;-67
2022/01/01 02:09:39;;;;;;;59.33;17.05;;;10.30;99.90;;;;;;4942753;29;20533;-67
2022/01/01 02:12:06;;;;;;;59.25;17.80;;;10.30;99.90;;;;;;4947556;28;20031;-66
2022/01/01 02:17:15;;;;;;;49.67;15.82;;;10.20;99.90;;;;;;4943970;29;20048;-66
2022/01/01 02:19:59;;;;;;;56.17;16.08;;;10.30;99.90;;;;;;4956800;28;20149;-66
2022/01/01 02:22:26;;;;;;;60.75;16.25;;;10.30;99.90;;;;;;4949412;28;20047;-66
2022/01/01 02:24:53;;;;;;;64.28;17.90;;;10.30;99.90;;;;;;4926787;29;20192;-66
2022/01/01 02:27:19;;;;;;;57.15;15.02;;;10.30;99.90;;;;;;4929982;29;20047;-66
2022/01/01 02:29:45;;;;;;;57.88;15.90;;;10.30;99.90;;;;;;4933161;29;20095;-66
2022/01/01 02:32:13;;;;;;;56.80;14.45;;;10.30;99.90;;;;;;4948250;29;20046;-66
2022/01/01 02:34:40;;;;;;;61.28;15.30;;;10.30;99.90;;;;;;4947654;28;20043;-66
2022/01/01 02:37:06;;;;;;;54.75;14.85;;;10.30;99.90;;;;;;4931398;29;20047;-66
2022/01/01 02:39:32;;;;;;;46.15;14.35;;;10.30;99.90;;;;;;4945677;29;20036;-66
2022/01/01 02:41:58;;;;;;;64.60;15.93;;;10.30;99.90;;;;;;4948852;29;20079;-66
2022/01/01 02:44:26;;;;;;;71.75;17.40;;;10.30;99.90;;;;;;4933270;29;20118;-66
2022/01/01 02:46:53;;;;;;;66.88;17.83;;;10.30;99.90;;;;;;4930048;29;20506;-66
2022/01/01 02:49:18;;;;;;;62.65;17.88;;;10.30;99.90;;;;;;4958874;28;20051;-66
2022/01/01 02:51:44;;;;;;;67.28;17.05;;;10.30;99.90;;;;;;4947058;28;20379;-67
2022/01/01 02:54:10;;;;;;;51.40;17.25;;;10.30;99.90;;;;;;4940550;29;20058;-66
2022/01/01 02:56:37;;;;;;;64.15;17.33;;;10.30;99.90;;;;;;4945868;28;20027;-66
2022/01/01 02:59:09;;;;;;;55.55;15.77;;;10.40;99.90;;;;;;4947914;28;20079;-66
2022/01/01 03:01:35;;;;;;;55.90;17.63;;;10.40;99.90;;;;;;4941921;29;20039;-66
2022/01/01 03:04:00;;;;;;;67.50;20.27;;;10.50;99.90;;;;;;4941292;29;20039;-66
2022/01/01 03:06:28;;;;;;;60.63;18.55;;;10.50;99.90;;;;;;4957952;28;20039;-66
2022/01/01 03:08:56;;;;;;;90.32;24.65;;;10.50;99.90;;;;;;4958896;28;20109;-66
2022/01/01 03:11:22;;;;;;;98.63;24.38;;;10.60;99.90;;;;;;4942953;29;20036;-66
2022/01/01 03:13:48;;;;;;;79.30;24.27;;;10.60;99.90;;;;;;4951075;28;20592;-66
2022/01/01 03:16:15;;;;;;;88.50;27.88;;;10.60;99.90;;;;;;4947163;29;20039;-66
2022/01/01 03:18:41;;;;;;;77.85;26.70;;;10.60;99.90;;;;;;4929156;29;21026;-66
2022/01/01 03:21:07;;;;;;;101.72;28.52;;;10.60;99.90;;;;;;4930956;29;20050;-66
2022/01/01 03:23:33;;;;;;;91.80;28.70;;;10.60;99.90;;;;;;4945986;29;20054;-66
2022/01/01 03:25:59;;;;;;;86.85;28.52;;;10.60;99.90;;;;;;4945557;29;20047;-66
2022/01/01 03:28:26;;;;;;;88.60;29.13;;;10.60;99.90;;;;;;4947788;29;20047;-66
2022/01/01 03:30:52;;;;;;;95.47;28.33;;;10.60;99.90;;;;;;4946939;29;20051;-66
2022/01/01 03:33:18;;;;;;;85.35;29.33;;;10.60;99.90;;;;;;4939476;29;20074;-66
2022/01/01 03:35:44;;;;;;;68.78;23.80;;;10.70;99.90;;;;;;4944471;28;20091;-66
2022/01/01 03:38:09;;;;;;;78.85;22.50;;;10.70;99.90;;;;;;4946826;28;20074;-66
2022/01/01 03:40:35;;;;;;;92.55;24.88;;;10.70;99.90;;;;;;4929623;29;20051;-66
2022/01/01 03:43:01;;;;;;;86.88;23.92;;;10.70;99.90;;;;;;4932633;29;20486;-66
2022/01/01 03:45:27;;;;;;;63.15;18.92;;;10.70;99.90;;;;;;4934010;29;20051;-66
2022/01/01 03:47:53;;;;;;;75.47;20.98;;;10.70;99.90;;;;;;4948481;28;20501;-67
2022/01/01 03:50:18;;;;;;;72.18;20.38;;;10.70;99.90;;;;;;4950453;29;20039;-66
2022/01/01 03:52:45;;;;;;;72.20;18.00;;;10.70;99.90;;;;;;4932547;29;20043;-66
2022/01/01 03:55:12;;;;;;;86.50;25.00;;;10.70;99.90;;;;;;4934638;29;20695;-67
2022/01/01 03:57:38;;;;;;;71.25;20.25;;;10.80;99.90;;;;;;4946327;29;20043;-66
2022/01/01 04:00:11;;;;;;;60.47;16.00;;;10.80;99.90;;;;;;4951212;29;20049;-66
2022/01/01 04:02:36;;;;;;;95.43;25.48;;;10.70;99.90;;;;;;4949578;29;20058;-66
2022/01/01 04:05:03;;;;;;;98.63;25.85;;;10.70;99.90;;;;;;4950218;29;20450;-66
2022/01/01 04:07:30;;;;;;;80.38;24.02;;;10.80;99.90;;;;;;4933087;29;20054;-66
2022/01/01 04:09:57;;;;;;;85.75;26.33;;;10.70;99.90;;;;;;4950089;29;20040;-66
2022/01/01 04:12:25;;;;;;;88.90;26.50;;;10.80;99.90;;;;;;4933838;29;20434;-66
2022/01/01 04:14:51;;;;;;;97.95;25.85;;;10.80;99.90;;;;;;4916693;29;20047;-66
2022/01/01 04:17:17;;;;;;;71.97;25.20;;;10.80;99.90;;;;;;4934023;29;20039;-66
2022/01/01 04:19:43;;;;;;;85.15;26.48;;;10.80;99.90;;;;;;4950194;29;20604;-66
2022/01/01 04:22:13;;;;;;;84.55;25.38;;;10.80;99.90;;;;;;4917063;29;20055;-66
2022/01/01 04:24:39;;;;;;;;;;;10.70;99.90;;;;;;4933490;29;20752;-66
2022/01/01 04:27:06;;;;;;;79.68;25.42;;;10.70;99.90;;;;;;4964662;28;20014;-66
2022/01/01 04:29:33;;;;;;;95.35;26.10;;;10.70;99.90;;;;;;4948940;29;20525;-66
2022/01/01 04:31:59;;;;;;;101.60;27.88;;;10.70;99.90;;;;;;4949435;29;20746;-66
2022/01/01 04:34:27;;;;;;;83.43;23.88;;;10.70;99.90;;;;;;4933041;29;20060;-66
2022/01/01 04:37:03;;;;;;;101.93;27.42;;;10.70;99.90;;;;;;4950411;29;20053;-66
2022/01/01 04:39:29;;;;;;;86.57;24.98;;;10.70;99.90;;;;;;4931429;29;20411;-66
2022/01/01 04:41:55;;;;;;;82.60;22.65;;;10.60;99.90;;;;;;4933369;29;20058;-66
2022/01/01 04:44:21;;;;;;;91.55;26.90;;;10.60;99.90;;;;;;4948113;29;20039;-66
2022/01/01 04:46:46;;;;;;;107.68;27.73;;;10.60;99.90;;;;;;4948544;29;20043;-66
2022/01/01 04:49:12;;;;;;;85.28;25.75;;;10.60;99.90;;;;;;4915917;29;20047;-66
2022/01/01 04:51:38;;;;;;;77.40;25.48;;;10.60;99.90;;;;;;4948641;29;20043;-66
2022/01/01 04:54:09;;;;;;;90.68;26.67;;;10.60;99.90;;;;;;4931405;29;20106;-67
2022/01/01 04:56:42;;;;;;;91.53;26.85;;;10.60;99.90;;;;;;4932104;29;20047;-66
2022/01/01 04:59:08;;;;;;;97.88;24.75;;;10.60;99.90;;;;;;4950515;29;20055;-66
2022/01/01 05:01:33;;;;;;;82.90;24.30;;;10.60;99.90;;;;;;4946750;28;20391;-66
2022/01/01 05:04:00;;;;;;;86.05;24.95;;;10.60;99.90;;;;;;4916613;29;20043;-66
2022/01/01 05:06:26;;;;;;;85.70;26.92;;;10.60;99.90;;;;;;4931282;29;20098;-66
2022/01/01 05:08:52;;;;;;;90.05;26.92;;;10.60;99.90;;;;;;4932572;29;20051;-66
2022/01/01 05:11:18;;;;;;;97.38;28.48;;;10.60;99.90;;;;;;4947790;28;20062;-66
2022/01/01 05:13:43;;;;;;;84.20;26.60;;;10.60;99.90;;;;;;4931164;29;20068;-66
2022/01/01 05:16:14;;;;;;;103.35;30.40;;;10.60;99.90;;;;;;4932421;29;20043;-66
2022/01/01 05:18:40;;;;;;;85.63;28.27;;;10.60;99.90;;;;;;4931304;29;20058;-66
2022/01/01 05:21:06;;;;;;;91.68;29.10;;;10.60;99.90;;;;;;4948397;28;20450;-67
2022/01/01 05:23:32;;;;;;;88.53;29.75;;;10.60;99.90;;;;;;4947717;29;20126;-66
2022/01/01 05:25:58;;;;;;;94.72;30.73;;;10.60;99.90;;;;;;4932626;29;20493;-66
2022/01/01 05:28:24;;;;;;;84.97;28.80;;;10.60;99.90;;;;;;4948954;29;20046;-66
2022/01/01 05:30:50;;;;;;;90.75;28.50;;;10.60;99.90;;;;;;4931568;29;20051;-66
2022/01/01 05:33:16;;;;;;;90.00;30.42;;;10.60;99.90;;;;;;4932234;29;20188;-66
2022/01/01 05:35:42;;;;;;;82.65;28.23;;;10.60;99.90;;;;;;4946154;29;20684;-66
2022/01/01 05:38:08;;;;;;;100.05;31.02;;;10.60;99.90;;;;;;4949820;29;20043;-66
2022/01/01 05:40:34;;;;;;;76.22;27.58;;;10.60;99.90;;;;;;4930227;29;20055;-66
2022/01/01 05:42:59;;;;;;;91.10;30.98;;;10.60;99.90;;;;;;4949378;29;20047;-66
2022/01/01 05:45:25;;;;;;;100.25;34.30;;;10.60;99.90;;;;;;4947886;29;20043;-66
2022/01/01 05:47:51;;;;;;;89.43;33.00;;;10.60;99.90;;;;;;4931626;29;20055;-66
2022/01/01 05:50:20;;;;;;;93.47;35.50;;;10.60;99.90;;;;;;4947259;29;20036;-66
2022/01/01 05:52:46;;;;;;;83.47;33.75;;;10.70;99.90;;;;;;4931113;29;20447;-66
2022/01/01 05:55:12;;;;;;;97.10;35.35;;;10.70;99.90;;;;;;4949493;29;20042;-67
2022/01/01 05:57:39;;;;;;;106.55;37.58;;;10.60;99.90;;;;;;4930145;29;20147;-66
2022/01/01 06:00:07;;;;;;;99.95;35.50;;;10.60;99.90;;;;;;4948742;29;20490;-66
2022/01/01 06:02:43;;;;;;;88.22;36.17;;;10.70;99.90;;;;;;4930448;29;20042;-66
2022/01/01 06:05:10;;;;;;;93.03;35.55;;;10.60;99.90;;;;;;4943777;28;20063;-66
2022/01/01 06:07:36;;;;;;;107.95;40.83;;;10.60;99.90;;;;;;4914200;29;20046;-66
2022/01/01 06:10:03;;;;;;;112.65;40.63;;;10.70;99.90;;;;;;4948472;29;20035;-66
2022/01/01 06:12:29;;;;;;;111.28;41.92;;;10.70;99.90;;;;;;4931540;29;20047;-66
2022/01/01 06:14:55;;;;;;;95.35;41.22;;;10.70;99.90;;;;;;4929615;29;20054;-66
2022/01/01 06:17:20;;;;;;;91.00;37.65;;;10.70;99.90;;;;;;4931534;29;20047;-66
2022/01/01 06:19:46;;;;;;;124.53;45.45;;;10.70;99.90;;;;;;4913942;29;20047;-66
2022/01/01 06:22:13;;;;;;;114.25;45.60;;;10.70;99.90;;;;;;4947790;28;20178;-66
2022/01/01 06:24:39;;;;;;;91.50;35.40;;;10.70;99.90;;;;;;4930009;29;20490;-66
2022/01/01 06:27:05;;;;;;;93.47;39.47;;;10.70;99.90;;;;;;4930998;29;20047;-66
2022/01/01 06:29:31;;;;;;;110.80;44.97;;;10.80;99.90;;;;;;4948838;29;20134;-66
2022/01/01 06:31:57;;;;;;;77.05;32.00;;;10.80;99.90;;;;;;4929420;29;20392;-66
2022/01/01 06:34:23;;;;;;;98.65;38.97;;;10.70;99.90;;;;;;4915431;29;20063;-67
2022/01/01 06:36:51;;;;;;;98.97;38.72;;;10.70;99.90;;;;;;4928711;29;20058;-66
2022/01/01 06:39:17;;;;;;;89.03;34.60;;;10.70;99.90;;;;;;4931776;29;20394;-66
2022/01/01 06:41:43;;;;;;;81.43;31.73;;;10.70;99.90;;;;;;4945246;29;20035;-66
2022/01/01 06:44:09;;;;;;;68.15;28.35;;;10.70;99.90;;;;;;4948217;29;20038;-66
2022/01/01 06:46:35;;;;;;;83.80;32.60;;;10.70;99.90;;;;;;4949565;28;20086;-66
2022/01/01 06:49:00;;;;;;;51.65;19.63;;;10.70;99.90;;;;;;4929733;29;20520;-66
2022/01/01 06:51:26;;;;;;;65.20;21.40;;;10.70;99.90;;;;;;4947529;29;20075;-66
2022/01/01 06:53:52;;;;;;;72.82;25.33;;;10.70;99.90;;;;;;4930623;29;20063;-66
2022/01/01 06:56:18;;;;;;;76.05;27.52;;;10.70;99.90;;;;;;4931750;29;20063;-66
2022/01/01 06:58:44;;;;;;;80.57;28.08;;;10.70;99.90;;;;;;4929489;29;20506;-66
2022/01/01 07:01:10;;;;;;;48.45;18.52;;;10.70;99.90;;;;;;4947663;29;20043;-66
2022/01/01 07:03:36;;;;;;;90.65;27.98;;;10.70;99.90;;;;;;4943250;29;20051;-66
2022/01/01 07:06:02;;;;;;;79.75;28.20;;;10.70;99.90;;;;;;4929052;29;20047;-66
2022/01/01 07:08:28;;;;;;;83.28;27.83;;;10.60;99.90;;;;;;4960746;28;20051;-66
2022/01/01 07:10:54;;;;;;;81.25;28.58;;;10.70;99.90;;;;;;4957991;28;20074;-66
2022/01/01 07:13:20;;;;;;;84.65;26.30;;;10.60;99.90;;;;;;4945189;29;20438;-66
2022/01/01 07:15:46;;;;;;;87.78;29.05;;;10.70;99.90;;;;;;4956684;28;20112;-66
2022/01/01 07:18:11;;;;;;;82.68;29.77;;;10.60;99.90;;;;;;4946804;29;20055;-66
2022/01/01 07:20:37;;;;;;;100.95;29.80;;;10.70;99.90;;;;;;4963610;28;20054;-66
2022/01/01 07:23:04;;;;;;;76.55;24.00;;;10.60;99.90;;;;;;4950823;28;20102;-66
2022/01/01 07:25:29;;;;;;;77.80;25.58;;;10.60;99.90;;;;;;4963282;28;20055;-66
2022/01/01 07:27:56;;;;;;;83.28;24.98;;;10.60;99.90;;;;;;4963605;28;20046;-66
2022/01/01 07:30:21;;;;;;;67.32;22.70;;;10.60;99.90;;;;;;4951742;28;20044;-66
2022/01/01 07:32:48;;;;;;;78.28;22.80;;;10.60;99.90;;;;;;4961022;28;20047;-67
2022/01/01 07:35:16;;;;;;;69.05;21.83;;;10.60;99.90;;;;;;4949063;28;20105;-66
2022/01/01 07:37:42;;;;;;;60.63;21.25;;;10.70;99.90;;;;;;4949387;29;20044;-66
2022/01/01 07:40:14;;;;;;;74.25;23.38;;;10.70;99.90;;;;;;4949792;28;20058;-66
2022/01/01 07:42:40;;;;;;;57.75;20.13;;;10.70;99.90;;;;;;4951415;29;20043;-66
2022/01/01 07:45:08;;;;;;;64.13;20.23;;;10.70;99.90;;;;;;4932760;29;20410;-66
2022/01/01 07:47:34;;;;;;;67.80;21.38;;;10.70;99.90;;;;;;4933960;29;20054;-66
2022/01/01 07:50:00;;;;;;;70.20;21.95;;;10.70;99.90;;;;;;4948649;29;20047;-66
2022/01/01 07:52:26;;;;;;;69.75;20.95;;;10.70;99.90;;;;;;4951311;29;20058;-66
2022/01/01 07:54:51;;;;;;;75.95;22.80;;;10.70;99.90;;;;;;4948332;28;20475;-66
2022/01/01 07:57:17;;;;;;;79.38;21.80;;;10.70;99.90;;;;;;4949652;29;20055;-66
2022/01/01 07:59:43;;;;;;;76.93;22.13;;;10.80;99.90;;;;;;4933410;29;20054;-66
2022/01/01 08:02:09;;;;;;;76.97;22.77;;;10.80;99.90;;;;;;4949906;29;20035;-66
2022/01/01 08:04:35;;;;;;;79.82;24.25;;;10.70;99.90;;;;;;4934120;29;20059;-66
2022/01/01 08:07:03;;;;;;;83.95;24.08;;;10.80;99.90;;;;;;4948768;29;20460;-66
2022/01/01 08:09:29;;;;;;;105.28;26.38;;;10.80;99.90;;;;;;4933560;29;20047;-66
2022/01/01 08:11:55;;;;;;;83.82;24.52;;;10.80;99.90;;;;;;4947954;29;20539;-66
2022/01/01 08:14:21;;;;;;;76.82;24.10;;;10.80;99.90;;;;;;4933314;29;20130;-66
2022/01/01 08:17:02;;;;;;;49.63;16.83;;;10.80;99.90;;;;;;4933206;29;20047;-66
2022/01/01 08:19:29;;;;;;;73.68;23.38;;;10.80;99.90;;;;;;4949768;29;20106;-66
2022/01/01 08:21:55;;;;;;;71.25;22.85;;;10.80;99.90;;;;;;4933578;29;20055;-66
2022/01/01 08:24:22;;;;;;;80.40;23.13;;;10.80;99.90;;;;;;4916516;29;20113;-66
2022/01/01 08:26:49;;;;;;;82.22;23.48;;;10.80;99.90;;;;;;4933451;29;20074;-66
2022/01/01 08:29:15;;;;;;;70.45;22.48;;;10.80;99.90;;;;;;4931317;29;20189;-66
2022/01/01 08:31:41;;;;;;;69.85;20.58;;;10.80;99.90;;;;;;4933541;29;20047;-66
2022/01/01 08:34:07;;;;;;;71.90;22.17;;;10.80;99.90;;;;;;4928468;29;20467;-66
2022/01/01 08:36:33;;;;;;;77.72;22.38;;;10.80;99.90;;;;;;4931036;29;20159;-66
2022/01/01 08:38:59;;;;;;;83.05;24.08;;;10.80;99.90;;;;;;4930808;29;20127;-66
2022/01/01 08:41:25;;;;;;;78.20;22.42;;;10.90;99.90;;;;;;4912856;29;20495;-66
2022/01/01 08:43:52;;;;;;;88.90;23.77;;;10.90;99.90;;;;;;4914050;29;20126;-67
2022/01/01 08:46:18;;;;;;;87.18;23.50;;;10.90;99.90;;;;;;4912935;29;20044;-66
2022/01/01 08:48:44;;;;;;;83.85;24.17;;;10.90;99.90;;;;;;4929836;29;20050;-66
2022/01/01 08:51:17;;;;;;;86.65;24.60;;;10.90;99.90;;;;;;4929233;29;20039;-66
2022/01/01 08:53:44;;;;;;;88.78;22.30;;;10.90;99.90;;;;;;4930564;29;20071;-66
2022/01/01 08:56:10;;;;;;;74.28;23.27;;;10.90;99.90;;;;;;4930671;29;20075;-66
2022/01/01 08:58:36;;;;;;;93.80;23.60;;;10.90;99.90;;;;;;4930133;29;20119;-67
2022/01/01 09:01:03;;;;;;;83.97;24.13;;;11.00;99.90;;;;;;4913107;29;20617;-66
2022/01/01 09:03:29;;;;;;;93.72;23.38;;;11.00;99.90;;;;;;4929454;29;20062;-66
2022/01/01 09:05:55;;;;;;;88.50;23.00;;;11.00;99.90;;;;;;4937890;29;20421;-66
2022/01/01 09:08:21;;;;;;;89.18;24.35;;;11.00;99.90;;;;;;4927152;29;20051;-66
2022/01/01 09:10:46;;;;;;;82.22;22.08;;;11.00;99.90;;;;;;4941433;29;20067;-66
2022/01/01 09:13:12;;;;;;;95.80;23.25;;;11.00;99.90;;;;;;4924784;29;20572;-66
2022/01/01 09:15:38;;;;;;;92.68;22.85;;;11.10;99.90;;;;;;4942389;29;20039;-66
2022/01/01 09:18:04;;;;;;;80.90;21.70;;;11.10;99.90;;;;;;4944351;29;20032;-66
2022/01/01 09:20:30;;;;;;;117.38;27.52;;;11.10;99.90;;;;;;4939676;29;20043;-66
2022/01/01 09:22:55;;;;;;;89.10;22.05;;;11.10;99.90;;;;;;4923770;29;20110;-66
2022/01/01 09:25:21;;;;;;;88.15;24.55;;;11.20;99.90;;;;;;4941723;29;20048;-66
2022/01/01 09:27:47;;;;;;;86.47;24.08;;;11.20;99.90;;;;;;4943426;29;20788;-66
2022/01/01 09:30:13;;;;;;;100.95;26.70;;;11.20;99.90;;;;;;4927949;29;20059;-66
2022/01/01 09:32:38;;;;;;;89.13;27.45;;;11.30;99.90;;;;;;4912004;29;20394;-66
2022/01/01 09:35:05;;;;;;;76.43;22.48;;;11.40;99.90;;;;;;4923972;29;20062;-66
2022/01/01 09:37:32;;;;;;;87.35;24.95;;;11.40;99.90;;;;;;4930490;29;20051;-66
2022/01/01 09:39:59;;;;;;;74.40;24.52;;;11.50;99.90;;;;;;4930766;28;20065;-66
2022/01/01 09:42:25;;;;;;;82.57;25.90;;;11.50;99.90;;;;;;4947164;29;20046;-66
2022/01/01 09:44:56;;;;;;;85.82;24.58;;;11.50;99.90;;;;;;4948934;28;20089;-66
2022/01/01 09:47:23;;;;;;;81.65;23.02;;;11.50;99.90;;;;;;4947225;29;20051;-66
2022/01/01 09:49:49;;;;;;;74.20;24.33;;;11.50;99.90;;;;;;4931347;29;20051;-66
2022/01/01 09:52:17;;;;;;;72.78;22.85;;;11.60;99.90;;;;;;4947404;29;20047;-66
2022/01/01 09:54:43;;;;;;;75.15;24.75;;;11.60;99.90;;;;;;4948042;29;20047;-66
2022/01/01 09:57:12;;;;;;;67.22;25.02;;;11.60;99.90;;;;;;4949181;29;20047;-66
2022/01/01 09:59:39;;;;;;;81.88;26.85;;;11.70;99.90;;;;;;4930969;29;20126;-66
2022/01/01 10:02:05;;;;;;;63.05;22.92;;;11.70;99.90;;;;;;4948547;29;20491;-66
2022/01/01 10:04:50;;;;;;;77.40;25.85;;;11.80;99.90;;;;;;4932446;29;20504;-66
2022/01/01 10:07:16;;;;;;;74.70;26.25;;;11.80;99.90;;;;;;4927305;29;20055;-66
2022/01/01 10:09:43;;;;;;;84.45;27.92;;;11.90;99.90;;;;;;4941244;29;20478;-66
2022/01/01 10:12:14;;;;;;;73.20;26.58;;;11.90;99.90;;;;;;4929939;29;20047;-66
2022/01/01 10:14:42;;;;;;;61.90;24.40;;;11.90;99.90;;;;;;4948670;29;20431;-66
2022/01/01 10:17:21;;;;;;;67.10;25.48;;;11.90;99.90;;;;;;4945832;28;20055;-66
2022/01/01 10:19:50;;;;;;;71.55;25.02;;;11.90;99.90;;;;;;4916077;29;20575;-66
2022/01/01 10:22:20;;;;;;;65.75;22.77;;;11.90;99.90;;;;;;4915415;29;20051;-66
2022/01/01 10:27:43;;;;;;;58.70;23.38;;;12.00;99.90;;;;;;4948758;29;20434;-66
2022/01/01 10:30:28;;;;;;;50.30;19.80;;;12.10;99.90;;;;;;4929506;29;20122;-66
2022/01/01 10:33:12;;;;;;;47.20;18.83;;;12.00;99.90;;;;;;4948636;29;20086;-66
2022/01/01 10:35:49;;;;;;;61.03;22.27;;;12.10;99.90;;;;;;4930950;29;20454;-66
2022/01/01 10:38:34;;;;;;;57.63;21.48;;;12.10;99.90;;;;;;4937815;29;20055;-66
2022/01/01 10:41:08;;;;;;;64.40;23.88;;;12.20;99.90;;;;;;4948557;28;20379;-66
2022/01/01 10:43:39;;;;;;;63.85;24.15;;;12.20;99.90;;;;;;4941506;29;20137;-66
2022/01/01 10:46:07;;;;;;;67.28;21.25;;;12.20;99.90;;;;;;4944382;28;20043;-67
2022/01/01 10:51:07;;;;;;;51.92;22.08;;;12.30;99.90;;;;;;4945455;28;20273;-66
2022/01/01 10:53:34;;;;;;;52.10;23.77;;;12.30;99.90;;;;;;4933425;29;20457;-66
2022/01/01 10:56:02;;;;;;;50.45;20.92;;;12.40;99.90;;;;;;4929853;29;20134;-67
2022/01/01 10:58:34;;;;;;;58.92;23.88;;;12.40;99.90;;;;;;4939307;28;20059;-66
2022/01/01 11:01:05;;;;;;;56.92;23.48;;;12.40;99.90;;;;;;4916922;28;20047;-67
2022/01/01 11:03:37;;;;;;;;;;;12.40;99.90;;;;;;4961380;28;20118;-66
2022/01/01 11:06:06;;;;;;;49.78;19.23;;;12.40;99.90;;;;;;4949136;28;20460;-66
2022/01/01 11:08:35;;;;;;;46.80;19.42;;;12.40;99.90;;;;;;4943006;29;20130;-66
2022/01/01 11:11:02;;;;;;;47.47;17.70;;;12.40;99.90;;;;;;4931834;29;20150;-66
2022/01/01 11:13:33;;;;;;;53.42;19.40;;;12.40;99.90;;;;;;4948618;29;20054;-66
2022/01/01 11:15:59;;;;;;;38.22;14.73;;;12.40;99.90;;;;;;4949294;29;20047;-66
2022/01/01 11:18:26;;;;;;;50.25;17.85;;;12.40;99.90;;;;;;4949771;29;20402;-66
2022/01/01 11:20:52;;;;;;;45.47;17.95;;;12.40;99.90;;;;;;4931431;29;20094;-66
2022/01/01 11:23:20;;;;;;;46.55;18.38;;;12.40;99.90;;;;;;4932360;29;20051;-66
2022/01/01 11:25:46;;;;;;;57.47;20.92;;;12.40;99.90;;;;;;4930787;29;20454;-66
2022/01/01 11:28:14;;;;;;;44.40;18.50;;;12.40;99.90;;;;;;4949123;29;20043;-66
2022/01/01 11:30:57;;;;;;;42.45;15.43;;;12.40;99.90;;;;;;4942466;29;20055;-66
2022/01/01 11:33:34;;;;;;;49.75;17.52;;;12.40;99.90;;;;;;4916001;29;20047;-66
2022/01/01 11:36:00;;;;;;;46.83;17.48;;;12.40;99.90;;;;;;4941854;29;20230;-66
2022/01/01 11:38:29;;;;;;;41.92;16.60;;;12.40;99.90;;;;;;4932263;29;20780;-66
2022/01/01 11:41:02;;;;;;;36.63;14.95;;;12.40;99.90;;;;;;4951358;29;20596;-66
2022/01/01 11:43:41;;;;;;;37.80;14.32;;;12.40;99.90;;;;;;4944706;29;20055;-66
2022/01/01 11:46:16;;;;;;;33.15;13.45;;;12.40;99.90;;;;;;4950449;28;20095;-66
2022/01/01 11:48:43;;;;;;;36.20;14.15;;;12.50;99.90;;;;;;4948207;29;20043;-66
2022/01/01 11:51:31;;;;;;;41.95;14.63;;;12.50;99.90;;;;;;4949026;29;20043;-66
2022/01/01 11:54:06;;;;;;;32.65;12.38;;;12.50;99.90;;;;;;4949199;28;20047;-66
2022/01/01 11:56:50;;;;;;;36.75;13.18;;;12.50;99.90;;;;;;4960849;28;20043;-66
2022/01/01 11:59:21;;;;;;;29.23;11.25;;;12.60;99.90;;;;;;4945328;29;20066;-66
2022/01/01 12:01:48;;;;;;;30.27;12.80;;;12.60;99.90;;;;;;4949968;28;20565;-66
2022/01/01 12:04:36;;;;;;;29.77;11.93;;;12.60;99.90;;;;;;4944663;28;20047;-66
2022/01/01 12:07:16;;;;;;;30.55;10.60;;;12.60;99.90;;;;;;4949769;28;20550;-66
2022/01/01 12:10:07;;;;;;;30.95;11.63;;;12.60;99.90;;;;;;4939930;29;20047;-66
2022/01/01 12:12:54;;;;;;;26.48;11.63;;;12.60;99.90;;;;;;4949580;29;20048;-66
2022/01/01 12:15:42;;;;;;;23.23;9.35;;;12.60;99.90;;;;;;4949075;29;20524;-66
2022/01/01 12:18:11;;;;;;;29.92;10.52;;;12.60;99.90;;;;;;4948408;29;20502;-66
2022/01/01 12:20:39;;;;;;;20.40;8.30;;;12.60;99.90;;;;;;4964239;28;20075;-66
2022/01/01 12:23:08;;;;;;;24.75;7.90;;;12.60;99.90;;;;;;4963734;28;20043;-66
2022/01/01 12:25:36;;;;;;;21.13;8.10;;;12.60;99.90;;;;;;4947826;28;20047;-66
2022/01/01 12:28:12;;;;;;;25.13;7.28;;;12.60;99.60;;;;;;4948829;29;20130;-66
2022/01/01 12:30:47;;;;;;;19.10;7.75;;;12.60;99.40;;;;;;4947456;28;20047;-66
2022/01/01 12:33:26;;;;;;;23.10;7.97;;;12.60;99.40;;;;;;4947882;28;20047;-66
2022/01/01 12:35:57;;;;;;;19.42;7.20;;;12.70;99.30;;;;;;4932719;29;20067;-66
2022/01/01 12:38:27;;;;;;;23.27;7.28;;;12.70;99.10;;;;;;4925053;29;20134;-66
2022/01/01 12:41:11;;;;;;;17.65;6.78;;;12.70;98.90;;;;;;4949274;29;20118;-66